Time;durP1;ratioP1;P1;durP2;ratioP2;P2;SDS_P1;SDS_P2;PMS_P1;PMS_P2;Temp;Humidity;BMP_temperature;BMP_pressure;BME280_temperature;BME280_humidity;BME280_pressure;Samples;Min_cycle;Max_cycle;Signal;HPM_P1;HPM_P2
2023/01/31 00:00:16;;;;;;;16.80;3.95;;;;;;;1.72;98.85;102386.78;5026512;28;20022;-72
2023/01/31 00:02:42;;;;;;;12.20;3.60;;;;;;;1.68;98.99;102388.63;5029513;28;20046;-73
2023/01/31 00:05:08;;;;;;;19.90;3.30;;;;;;;1.66;99.27;102403.84;5028920;28;20059;-72
2023/01/31 00:07:33;;;;;;;23.50;3.17;;;;;;;1.63;99.24;102403.88;5027847;28;20366;-72
2023/01/31 00:09:58;;;;;;;18.80;2.95;;;;;;;1.63;99.40;102397.59;5027602;28;20374;-73
2023/01/31 00:12:24;;;;;;;26.40;3.33;;;;;;;1.61;99.26;102402.09;5036974;28;20036;-71
2023/01/31 00:14:49;;;;;;;16.02;3.20;;;;;;;1.53;99.15;102402.16;5037835;28;20068;-72
2023/01/31 00:17:14;;;;;;;8.82;3.20;;;;;;;1.53;99.28;102408.41;5029061;28;20045;-72
2023/01/31 00:19:40;;;;;;;18.70;3.30;;;;;;;1.50;99.37;102412.94;5028838;28;20033;-72
2023/01/31 00:22:05;;;;;;;16.80;3.00;;;;;;;1.49;99.09;102413.81;5027522;28;20022;-73
2023/01/31 00:24:30;;;;;;;14.90;3.13;;;;;;;1.43;99.25;102409.41;5027823;28;20044;-72
2023/01/31 00:26:56;;;;;;;14.70;3.60;;;;;;;1.40;99.35;102414.84;5027581;28;20037;-71
2023/01/31 00:29:23;;;;;;;11.65;2.95;;;;;;;1.36;99.29;102418.44;5027342;28;20128;-73
2023/01/31 00:31:49;;;;;;;12.23;3.42;;;;;;;1.32;99.59;102427.41;5028896;28;20045;-76
2023/01/31 00:34:17;;;;;;;14.75;3.00;;;;;;;1.30;99.98;102421.16;5027739;28;20032;-72
2023/01/31 00:36:43;;;;;;;16.40;2.88;;;;;;;1.29;99.89;102424.75;5029625;28;20459;-72
2023/01/31 00:39:09;;;;;;;18.10;3.70;;;;;;;1.27;99.97;102421.19;5014459;28;20345;-72
2023/01/31 00:41:36;;;;;;;9.82;3.20;;;;;;;1.27;100.00;102410.47;5031023;28;20080;-72
2023/01/31 00:44:04;;;;;;;18.40;3.30;;;;;;;1.24;100.00;102397.97;5032131;28;20462;-73
2023/01/31 00:46:29;;;;;;;17.70;3.17;;;;;;;1.23;100.00;102401.56;5031759;28;20048;-72
2023/01/31 00:48:56;;;;;;;12.07;3.10;;;;;;;1.22;100.00;102404.28;5032201;28;20377;-72
2023/01/31 00:51:23;;;;;;;14.85;3.70;;;;;;;1.20;100.00;102396.22;5030657;28;20041;-72
2023/01/31 00:53:49;;;;;;;20.73;2.78;;;;;;;1.19;100.00;102406.97;5030781;28;20041;-75
2023/01/31 00:56:24;;;;;;;22.10;3.70;;;;;;;1.15;100.00;102399.84;5032242;28;20437;-71
2023/01/31 00:58:50;;;;;;;14.00;2.85;;;;;;;1.15;100.00;102394.50;5031781;28;20051;-72
2023/01/31 01:01:23;;;;;;;12.00;3.55;;;;;;;1.14;100.00;102393.59;5030827;28;20061;-72
2023/01/31 01:03:49;;;;;;;20.15;4.05;;;;;;;1.14;100.00;102388.25;5030453;28;20037;-72
2023/01/31 01:06:15;;;;;;;20.95;4.10;;;;;;;1.16;100.00;102394.47;5030385;28;20025;-72
2023/01/31 01:08:42;;;;;;;19.08;3.92;;;;;;;1.19;100.00;102393.56;5031839;28;20498;-72
2023/01/31 01:11:17;;;;;;;15.45;4.72;;;;;;;1.21;100.00;102386.38;5030158;28;20029;-72
2023/01/31 01:13:43;;;;;;;12.38;3.42;;;;;;;1.19;100.00;102375.69;5030026;28;20067;-72
2023/01/31 01:16:31;;;;;;;20.60;3.67;;;;;;;1.23;100.00;102376.56;5031614;28;20400;-73
2023/01/31 01:18:56;;;;;;;15.85;3.58;;;;;;;1.23;100.00;102380.13;5031632;28;20033;-72
2023/01/31 01:21:27;;;;;;;28.75;5.53;;;;;;;1.20;100.00;102371.22;5031207;28;20456;-72
2023/01/31 01:23:57;;;;;;;22.15;5.35;;;;;;;1.17;100.00;102363.22;5031248;28;20037;-72
2023/01/31 01:26:25;;;;;;;15.65;3.88;;;;;;;1.14;100.00;102355.19;5031334;28;20081;-72
2023/01/31 01:28:52;;;;;;;24.98;4.72;;;;;;;1.11;100.00;102353.41;5030908;28;20033;-73
2023/01/31 01:31:18;;;;;;;16.77;4.13;;;;;;;1.08;100.00;102350.78;5040539;28;20068;-73
2023/01/31 01:33:46;;;;;;;24.13;4.10;;;;;;;1.06;100.00;102347.22;5046767;28;20159;-73
2023/01/31 01:36:16;;;;;;;13.10;4.40;;;;;;;1.05;100.00;102353.47;5029750;28;20040;-72
2023/01/31 01:38:42;;;;;;;20.83;4.43;;;;;;;1.00;100.00;102350.84;5031168;28;20048;-72
2023/01/31 01:41:09;;;;;;;16.10;4.07;;;;;;;0.96;100.00;102354.44;5029632;28;20021;-72
2023/01/31 01:43:43;;;;;;;19.70;4.57;;;;;;;0.94;100.00;102361.63;5030119;28;20091;-72
2023/01/31 01:46:18;;;;;;;17.35;4.05;;;;;;;0.93;100.00;102353.56;5032723;28;20440;-73
2023/01/31 01:48:47;;;;;;;23.75;5.35;;;;;;;0.91;100.00;102356.28;5050499;28;20535;-72
2023/01/31 01:51:14;;;;;;;18.27;5.22;;;;;;;0.87;100.00;102348.28;5044133;28;20568;-72
2023/01/31 01:53:42;;;;;;;18.20;5.47;;;;;;;0.87;100.00;102345.59;5019954;28;20037;-72
2023/01/31 01:56:28;;;;;;;12.48;5.80;;;;;;;0.87;100.00;102346.50;5050610;28;20501;-72
2023/01/31 01:59:01;;;;;;;21.65;5.45;;;;;;;0.87;100.00;102341.13;5047738;28;20442;-72
2023/01/31 02:01:33;;;;;;;20.38;6.78;;;;;;;0.87;100.00;102334.88;5030620;28;20045;-72
2023/01/31 02:03:59;;;;;;;23.77;6.00;;;;;;;0.88;100.00;102344.69;5030246;28;20037;-73
2023/01/31 02:06:24;;;;;;;19.35;4.85;;;;;;;0.83;100.00;102349.19;5049773;28;20040;-72
2023/01/31 02:08:50;;;;;;;11.20;4.35;;;;;;;0.77;100.00;102350.16;5039910;28;20162;-73
2023/01/31 02:11:23;;;;;;;17.42;5.00;;;;;;;0.73;100.00;102351.94;5012700;28;20026;-73
2023/01/31 02:13:54;;;;;;;19.00;5.82;;;;;;;0.68;100.00;102355.56;5030301;28;20043;-75
2023/01/31 02:16:20;;;;;;;19.88;4.97;;;;;;;0.65;100.00;102352.91;5029277;28;20413;-73
2023/01/31 02:18:47;;;;;;;17.70;4.90;;;;;;;0.63;100.00;102360.06;5029274;28;20151;-73
2023/01/31 02:21:44;;;;;;;19.38;4.97;;;;;;;0.63;100.00;102360.06;5029001;28;20521;-72
2023/01/31 02:24:18;;;;;;;10.48;4.30;;;;;;;0.61;100.00;102367.25;5040767;28;20124;-72
2023/01/31 02:26:55;;;;;;;21.23;5.22;;;;;;;0.58;100.00;102367.25;5049042;28;20068;-72
2023/01/31 02:29:49;;;;;;;25.70;6.20;;;;;;;0.58;100.00;102373.50;5042559;28;20081;-73
2023/01/31 02:32:59;;;;;;;24.00;5.75;;;;;;;0.66;100.00;102368.09;5028624;28;20059;-72
2023/01/31 02:35:54;;;;;;;20.00;5.75;;;;;;;0.72;100.00;102373.41;5028625;28;20052;-72
2023/01/31 02:38:35;;;;;;;15.40;5.78;;;;;;;0.76;100.00;102368.00;5028844;28;20480;-72
2023/01/31 02:41:15;;;;;;;31.10;6.60;;;;;;;0.79;100.00;102351.00;5028718;28;20570;-74
2023/01/31 02:46:53;;;;;;;26.00;5.97;;;;;;;0.88;100.00;102350.06;5028540;28;20046;-72
2023/01/31 02:49:45;;;;;;;25.23;6.45;;;;;;;0.90;100.00;102353.63;5028629;28;20131;-74
2023/01/31 02:52:20;;;;;;;26.42;6.13;;;;;;;0.93;100.00;102349.13;5031216;28;20523;-73
2023/01/31 02:57:49;;;;;;;22.55;5.85;;;;;;;0.98;100.00;102358.03;5028571;28;20378;-72
2023/01/31 03:00:16;;;;;;;24.40;6.05;;;;;;;0.99;100.00;102348.19;5028289;28;20485;-72
2023/01/31 03:02:41;;;;;;;23.73;6.57;;;;;;;1.04;100.00;102356.19;5028178;28;20032;-72
2023/01/31 03:05:13;;;;;;;25.10;6.43;;;;;;;1.02;100.00;102358.84;5028014;28;20037;-75
2023/01/31 03:07:42;;;;;;;27.50;6.77;;;;;;;1.06;100.00;102347.22;5029596;28;20037;-72
2023/01/31 03:10:37;;;;;;;28.77;7.30;;;;;;;1.10;100.00;102343.59;5011469;28;20036;-73
2023/01/31 03:13:29;;;;;;;17.23;7.47;;;;;;;1.11;100.00;102344.50;5028276;28;20567;-73
2023/01/31 03:19:16;;;;;;;26.08;8.75;;;;;;;1.13;100.00;102348.06;5040439;28;20102;-72
2023/01/31 03:21:52;;;;;;;28.17;8.40;;;;;;;1.18;100.00;102336.41;5042274;28;20049;-72
2023/01/31 03:24:19;;;;;;;24.20;8.18;;;;;;;1.22;100.00;102338.16;5035429;28;20049;-74
2023/01/31 03:26:45;;;;;;;28.85;8.93;;;;;;;1.27;100.00;102341.66;5028550;28;20488;-72
2023/01/31 03:29:14;;;;;;;33.97;9.95;;;;;;;1.31;100.00;102336.28;5027299;28;20079;-72
2023/01/31 03:31:53;;;;;;;31.17;9.00;;;;;;;1.32;100.00;102328.22;5028080;28;20451;-72
2023/01/31 03:34:18;;;;;;;38.05;10.70;;;;;;;1.30;100.00;102330.00;5029324;28;20033;-75
2023/01/31 03:36:48;;;;;;;19.70;8.30;;;;;;;1.31;100.00;102339.84;5028379;28;20048;-72
2023/01/31 03:40:04;;;;;;;26.52;8.88;;;;;;;1.35;100.00;102328.16;5028101;28;20485;-73
2023/01/31 03:42:56;;;;;;;27.95;9.23;;;;;;;1.37;100.00;102325.50;5028004;28;20053;-72
2023/01/31 03:45:35;;;;;;;34.40;9.52;;;;;;;1.38;100.00;102329.94;5028885;28;20091;-72
2023/01/31 03:48:06;;;;;;;21.60;9.73;;;;;;;1.36;100.00;102321.03;5011287;28;20088;-71
2023/01/31 03:50:38;;;;;;;33.47;9.70;;;;;;;1.40;100.00;102317.38;5027682;28;20072;-72
2023/01/31 03:53:45;;;;;;;26.70;10.05;;;;;;;1.43;100.00;102315.56;5027565;28;21482;-72
2023/01/31 03:56:39;;;;;;;35.80;11.73;;;;;;;1.47;100.00;102313.75;4990388;28;20041;-72
2023/01/31 03:59:16;;;;;;;24.27;9.75;;;;;;;1.47;100.00;102305.72;5044134;28;20048;-72
2023/01/31 04:01:47;;;;;;;26.60;10.30;;;;;;;1.56;100.00;102310.09;5027784;28;20033;-72
2023/01/31 04:04:36;;;;;;;47.03;11.30;;;;;;;1.59;100.00;102302.91;5044084;28;20041;-73
2023/01/31 04:07:02;;;;;;;28.42;11.35;;;;;;;1.59;100.00;102302.00;5028874;28;20063;-72
2023/01/31 04:09:29;;;;;;;31.70;11.23;;;;;;;1.61;100.00;102305.56;5041449;28;20504;-74
2023/01/31 04:11:58;;;;;;;26.42;10.23;;;;;;;1.62;100.00;102310.00;5050214;28;20041;-72
2023/01/31 04:14:24;;;;;;;33.67;10.98;;;;;;;1.59;100.00;102302.00;5045183;28;20037;-72
2023/01/31 04:16:49;;;;;;;31.85;11.07;;;;;;;1.59;100.00;102305.56;5032588;28;20029;-72
2023/01/31 04:19:14;;;;;;;32.25;11.73;;;;;;;1.59;100.00;102292.16;5032940;28;20116;-72
2023/01/31 04:21:40;;;;;;;33.67;12.32;;;;;;;1.59;100.00;102300.22;5030792;28;20030;-72
2023/01/31 04:24:08;;;;;;;28.25;10.90;;;;;;;1.61;100.00;102297.50;5032307;28;20048;-73
2023/01/31 04:26:33;;;;;;;27.20;12.30;;;;;;;1.61;100.00;102298.38;5032239;28;20041;-72
2023/01/31 04:28:58;;;;;;;34.20;13.15;;;;;;;1.65;100.00;102299.25;5032015;28;20350;-72
2023/01/31 04:31:24;;;;;;;36.65;11.35;;;;;;;1.64;100.00;102301.03;5032470;28;20036;-72
2023/01/31 04:33:49;;;;;;;27.40;11.43;;;;;;;1.65;100.00;102292.09;5032339;28;20112;-72
2023/01/31 04:36:15;;;;;;;31.90;12.75;;;;;;;1.63;100.00;102293.00;5032663;28;20037;-71
2023/01/31 04:38:40;;;;;;;32.08;10.65;;;;;;;1.60;100.00;102291.25;5044777;28;20025;-73
2023/01/31 04:41:05;;;;;;;38.38;12.00;;;;;;;1.59;100.00;102291.28;5030974;28;20041;-72
2023/01/31 04:43:31;;;;;;;35.20;10.95;;;;;;;1.59;100.00;102288.59;5032106;28;20059;-72
2023/01/31 04:45:56;;;;;;;38.53;13.23;;;;;;;1.56;100.00;102302.91;5030291;28;20026;-73
2023/01/31 04:48:21;;;;;;;29.02;10.27;;;;;;;1.54;100.00;102294.03;5030413;28;20631;-72
2023/01/31 04:50:47;;;;;;;36.55;11.43;;;;;;;1.53;100.00;102286.84;5032166;28;20500;-72
2023/01/31 04:53:12;;;;;;;29.88;10.40;;;;;;;1.52;100.00;102285.97;5031986;28;20382;-71
2023/01/31 04:55:38;;;;;;;32.15;11.85;;;;;;;1.52;100.00;102277.03;5031894;28;20116;-71
2023/01/31 04:58:03;;;;;;;28.33;11.50;;;;;;;1.54;100.00;102267.19;5030462;28;20495;-72
2023/01/31 05:00:28;;;;;;;32.83;12.52;;;;;;;1.53;100.00;102268.09;5031940;28;20041;-71
2023/01/31 05:02:54;;;;;;;32.25;10.45;;;;;;;1.53;100.00;102262.72;5029978;28;20044;-73
2023/01/31 05:05:19;;;;;;;31.55;11.40;;;;;;;1.52;100.00;102266.31;5038656;28;20037;-73
2023/01/31 05:07:45;;;;;;;33.65;10.43;;;;;;;1.52;100.00;102258.28;5051809;28;20035;-72
2023/01/31 05:10:11;;;;;;;33.10;11.25;;;;;;;1.56;100.00;102259.13;5031449;28;20489;-73
2023/01/31 05:12:36;;;;;;;24.73;11.30;;;;;;;1.62;100.00;102253.69;5031643;28;20037;-72
2023/01/31 05:15:03;;;;;;;33.13;12.45;;;;;;;1.64;100.00;102258.13;5031240;28;20044;-73
2023/01/31 05:17:29;;;;;;;31.50;10.55;;;;;;;1.71;100.00;102250.88;5030101;28;20393;-72
2023/01/31 05:19:58;;;;;;;28.92;12.88;;;;;;;1.74;100.00;102242.78;5031532;28;20036;-73
2023/01/31 05:22:24;;;;;;;27.42;11.23;;;;;;;1.75;100.00;102250.81;5031152;28;20044;-72
2023/01/31 05:24:49;;;;;;;26.75;11.43;;;;;;;1.78;100.00;102249.91;5028946;28;20060;-72
2023/01/31 05:27:15;;;;;;;33.28;11.85;;;;;;;1.78;100.00;102241.84;5031571;28;20449;-71
2023/01/31 05:29:41;;;;;;;22.95;9.90;;;;;;;1.83;100.00;102249.84;5031009;28;20030;-72
2023/01/31 05:32:07;;;;;;;35.30;11.45;;;;;;;1.83;100.00;102245.34;5031248;28;20026;-73
2023/01/31 05:34:33;;;;;;;27.73;10.98;;;;;;;1.84;100.00;102252.50;5031239;28;20056;-72
2023/01/31 05:36:59;;;;;;;34.95;12.40;;;;;;;1.83;100.00;102241.78;5031077;28;20060;-72
2023/01/31 05:39:25;;;;;;;28.80;11.23;;;;;;;1.84;100.00;102235.50;5030947;28;20034;-73
2023/01/31 05:41:51;;;;;;;28.00;9.90;;;;;;;1.79;100.00;102215.00;5031067;28;20037;-72
2023/01/31 05:44:18;;;;;;;34.53;11.23;;;;;;;1.87;100.00;102225.63;5031110;28;20381;-72
2023/01/31 05:46:43;;;;;;;34.97;11.48;;;;;;;1.88;100.00;102230.06;5031036;28;20045;-73
2023/01/31 05:49:09;;;;;;;26.23;10.50;;;;;;;1.86;100.00;102226.50;5030837;28;20028;-73
2023/01/31 05:51:34;;;;;;;28.75;10.55;;;;;;;1.89;100.00;102231.84;5029478;28;20489;-73
2023/01/31 05:53:59;;;;;;;28.75;11.38;;;;;;;1.92;100.00;102228.25;5039658;28;20116;-73
2023/01/31 05:56:25;;;;;;;29.45;11.30;;;;;;;1.93;100.00;102216.59;5049461;28;20040;-73
2023/01/31 05:58:50;;;;;;;30.33;10.55;;;;;;;1.97;100.00;102224.56;5036315;28;20481;-75
2023/01/31 06:01:20;;;;;;;27.17;9.45;;;;;;;1.98;100.00;102220.09;5030913;28;20033;-71
2023/01/31 06:03:46;;;;;;;36.38;10.45;;;;;;;2.01;100.00;102234.38;5029568;28;20059;-72
2023/01/31 06:06:12;;;;;;;31.13;10.98;;;;;;;2.02;100.00;102237.94;5030156;28;20052;-72
2023/01/31 06:08:37;;;;;;;24.90;11.05;;;;;;;2.02;100.00;102237.94;5030483;28;20038;-72
2023/01/31 06:11:04;;;;;;;31.58;10.13;;;;;;;2.05;100.00;102245.91;5030662;28;20044;-71
2023/01/31 06:13:30;;;;;;;31.88;10.15;;;;;;;2.06;100.00;102226.25;5030803;28;20057;-75
2023/01/31 06:15:55;;;;;;;29.35;10.55;;;;;;;2.06;100.00;102220.88;5046492;28;20037;-74
2023/01/31 06:18:21;;;;;;;32.08;9.90;;;;;;;2.10;100.00;102227.06;5049066;28;20043;-73
2023/01/31 06:20:46;;;;;;;25.75;9.45;;;;;;;2.12;100.00;102225.25;5032363;28;20032;-72
2023/01/31 06:23:11;;;;;;;29.60;10.25;;;;;;;2.13;100.00;102221.66;5047716;28;20040;-72
2023/01/31 06:25:37;;;;;;;27.05;10.57;;;;;;;2.14;100.00;102224.31;5049782;28;20116;-71
2023/01/31 06:28:03;;;;;;;31.58;10.52;;;;;;;2.17;100.00;102234.13;5050185;28;20087;-72
2023/01/31 06:30:29;;;;;;;25.25;9.43;;;;;;;2.18;100.00;102226.03;5035059;28;20367;-72
2023/01/31 06:32:54;;;;;;;27.88;10.07;;;;;;;2.20;100.00;102226.91;5029050;28;20186;-71
2023/01/31 06:35:20;;;;;;;27.90;10.20;;;;;;;2.18;100.00;102211.72;5029702;28;20080;-72
2023/01/31 06:37:45;;;;;;;27.10;9.05;;;;;;;2.21;100.00;102211.69;5041511;28;20039;-72
2023/01/31 06:40:11;;;;;;;27.42;9.38;;;;;;;2.21;100.00;102209.88;5029977;28;20357;-71
2023/01/31 06:42:36;;;;;;;21.42;8.73;;;;;;;2.24;100.00;102217.91;5029750;28;20065;-72
2023/01/31 06:45:02;;;;;;;27.33;9.95;;;;;;;2.26;100.00;102212.50;5028415;28;20495;-73
2023/01/31 06:47:27;;;;;;;30.70;9.30;;;;;;;2.27;100.00;102206.22;5028546;28;20036;-71
2023/01/31 06:49:52;;;;;;;19.27;7.38;;;;;;;2.27;100.00;102193.66;5029791;28;20069;-71
2023/01/31 06:52:18;;;;;;;31.75;9.48;;;;;;;2.34;100.00;102197.16;5030011;28;20049;-72
2023/01/31 06:54:43;;;;;;;27.98;8.30;;;;;;;2.31;100.00;102186.47;5029798;28;20547;-71
2023/01/31 06:57:08;;;;;;;23.95;9.02;;;;;;;2.38;100.00;102190.84;5030057;28;20485;-71
2023/01/31 06:59:34;;;;;;;28.95;9.45;;;;;;;2.40;100.00;102188.09;5043370;28;20040;-72
2023/01/31 07:01:59;;;;;;;20.98;8.60;;;;;;;2.44;100.00;102190.72;5029541;28;20037;-74
2023/01/31 07:04:24;;;;;;;26.23;9.45;;;;;;;2.48;100.00;102197.81;5029384;28;20040;-73
2023/01/31 07:06:50;;;;;;;26.77;8.18;;;;;;;2.51;100.00;102191.47;5028116;28;20029;-72
2023/01/31 07:09:15;;;;;;;21.08;8.27;;;;;;;2.55;100.00;102194.09;5029728;28;20503;-72
2023/01/31 07:11:41;;;;;;;24.67;8.32;;;;;;;2.59;100.00;102191.38;5029704;28;20585;-72
2023/01/31 07:14:06;;;;;;;19.30;8.27;;;;;;;2.61;100.00;102202.94;5029278;28;20493;-72
2023/01/31 07:16:32;;;;;;;16.55;7.75;;;;;;;2.62;100.00;102194.88;5029359;28;20496;-72
2023/01/31 07:18:57;;;;;;;27.25;7.80;;;;;;;2.67;100.00;102178.69;5029421;28;20037;-72
2023/01/31 07:21:23;;;;;;;25.33;8.75;;;;;;;2.69;100.00;102193.84;5028005;28;20423;-71
2023/01/31 07:23:49;;;;;;;22.98;6.90;;;;;;;2.72;100.00;102180.38;5029314;28;20068;-73
2023/01/31 07:26:15;;;;;;;33.85;8.57;;;;;;;2.74;100.00;102174.97;5029539;28;20504;-72
2023/01/31 07:28:40;;;;;;;25.95;7.82;;;;;;;2.70;100.00;102176.81;5027953;28;20571;-72
2023/01/31 07:31:09;;;;;;;22.33;6.53;;;;;;;2.76;100.00;102175.84;5027653;28;20495;-72
2023/01/31 07:33:35;;;;;;;33.45;7.95;;;;;;;2.81;100.00;102180.19;5029517;28;20044;-72
2023/01/31 07:36:05;;;;;;;22.73;7.85;;;;;;;2.84;100.00;102187.28;5027875;28;20037;-72
2023/01/31 07:38:31;;;;;;;23.42;7.85;;;;;;;2.85;100.00;102181.03;5029028;28;20033;-73
2023/01/31 07:41:02;;;;;;;24.33;7.47;;;;;;;2.90;100.00;102178.25;5029131;28;20030;-72
2023/01/31 07:43:28;;;;;;;24.50;7.90;;;;;;;2.93;100.00;102183.56;5029056;28;20044;-73
2023/01/31 07:45:54;;;;;;;23.73;6.97;;;;;;;2.96;100.00;102172.75;5029127;28;20072;-72
2023/01/31 07:48:22;;;;;;;18.65;7.15;;;;;;;2.98;100.00;102174.47;5032667;28;20065;-72
2023/01/31 07:50:52;;;;;;;19.75;7.03;;;;;;;3.03;100.00;102166.31;5033092;28;20409;-72
2023/01/31 07:53:18;;;;;;;22.85;7.13;;;;;;;3.02;100.00;102161.88;5032414;28;20400;-72
2023/01/31 07:55:47;;;;;;;13.77;6.32;;;;;;;3.05;100.00;102165.38;5032289;28;20024;-72
2023/01/31 07:58:13;;;;;;;19.38;7.53;;;;;;;3.08;100.00;102156.41;5031708;28;20037;-72
2023/01/31 08:03:32;;;;;;;22.25;7.18;;;;;;;3.13;100.00;102154.50;5031357;28;20500;-72
2023/01/31 08:06:10;;;;;;;21.00;7.65;;;;;;;3.13;100.00;102154.50;5032763;28;20037;-74
2023/01/31 08:08:36;;;;;;;26.17;7.20;;;;;;;3.18;100.00;102149.03;5038051;28;20362;-71
2023/01/31 08:11:05;;;;;;;19.15;6.25;;;;;;;3.19;100.00;102140.91;5036203;28;20369;-72
2023/01/31 08:13:32;;;;;;;12.20;5.97;;;;;;;3.22;100.00;102135.47;5031637;28;20041;-72
2023/01/31 08:15:58;;;;;;;21.50;7.20;;;;;;;3.26;100.00;102153.31;5043428;28;20099;-72
2023/01/31 08:18:24;;;;;;;24.92;8.10;;;;;;;3.28;100.00;102147.91;5032789;28;20065;-72
2023/01/31 08:20:49;;;;;;;18.80;6.43;;;;;;;3.29;100.00;102138.91;5032420;28;20148;-72
2023/01/31 08:23:14;;;;;;;23.10;6.82;;;;;;;3.32;100.00;102136.16;5032596;28;20029;-73
2023/01/31 08:25:40;;;;;;;23.88;6.80;;;;;;;3.39;100.00;102140.47;5031245;28;20048;-72
2023/01/31 08:28:05;;;;;;;22.25;6.63;;;;;;;3.43;100.00;102144.88;5031304;28;20087;-71
2023/01/31 08:30:31;;;;;;;18.00;6.93;;;;;;;3.46;100.00;102136.75;5030754;28;20037;-71
2023/01/31 08:32:56;;;;;;;18.80;6.50;;;;;;;3.49;100.00;102122.31;5032434;28;20044;-72
2023/01/31 08:35:24;;;;;;;20.88;6.82;;;;;;;3.52;100.00;102120.47;5032229;28;20037;-71
2023/01/31 08:37:50;;;;;;;17.63;6.70;;;;;;;3.54;100.00;102109.66;5032328;28;20042;-74
2023/01/31 08:40:15;;;;;;;19.30;6.75;;;;;;;3.62;100.00;102122.94;5031328;28;20060;-72
2023/01/31 08:42:41;;;;;;;21.45;6.75;;;;;;;3.65;100.00;102114.81;5031204;28;20064;-72
2023/01/31 08:45:07;;;;;;;16.42;5.88;;;;;;;3.70;100.00;102107.50;5032005;28;20496;-71
2023/01/31 08:47:32;;;;;;;17.00;6.22;;;;;;;3.73;100.00;102108.31;5030662;28;20021;-71
2023/01/31 08:49:58;;;;;;;18.33;6.30;;;;;;;3.79;100.00;102112.66;5031974;28;20041;-71
2023/01/31 08:52:23;;;;;;;20.38;6.57;;;;;;;3.80;100.00;102109.94;5030746;28;20064;-71
2023/01/31 08:54:49;;;;;;;17.85;6.72;;;;;;;3.82;100.00;102094.66;5031844;28;20025;-75
2023/01/31 08:57:14;;;;;;;19.05;6.72;;;;;;;3.82;99.91;102077.59;5032024;28;20033;-71
2023/01/31 08:59:39;;;;;;;13.65;5.68;;;;;;;3.89;100.00;102081.03;5031635;28;20028;-71
2023/01/31 09:02:05;;;;;;;21.42;6.43;;;;;;;3.98;100.00;102092.44;5030612;28;20034;-71
2023/01/31 09:04:30;;;;;;;18.42;6.00;;;;;;;4.04;99.68;102086.91;5031442;28;20025;-74
2023/01/31 09:06:56;;;;;;;25.40;7.45;;;;;;;4.09;100.00;102087.66;5031734;28;20073;-71
2023/01/31 09:09:21;;;;;;;21.88;6.25;;;;;;;4.13;100.00;102092.97;5031900;28;20059;-71
2023/01/31 09:11:46;;;;;;;17.58;5.55;;;;;;;4.16;100.00;102090.22;5030982;28;20021;-74
2023/01/31 09:14:12;;;;;;;17.05;5.88;;;;;;;4.18;99.67;102082.97;5031396;28;20448;-72
2023/01/31 09:16:37;;;;;;;11.20;5.25;;;;;;;4.19;100.00;102088.31;5030454;28;20536;-73
2023/01/31 09:19:03;;;;;;;16.25;5.88;;;;;;;4.22;99.64;102093.63;5031653;28;20029;-72
2023/01/31 09:21:28;;;;;;;20.92;6.80;;;;;;;4.25;99.93;102081.91;5030242;28;20029;-72
2023/01/31 09:23:57;;;;;;;19.98;6.18;;;;;;;4.32;99.90;102086.19;5034970;28;20124;-72
2023/01/31 09:26:23;;;;;;;24.70;6.00;;;;;;;4.41;100.00;102063.50;5030079;28;20033;-73
2023/01/31 09:28:49;;;;;;;15.32;5.10;;;;;;;4.58;99.85;102059.44;5047009;28;20060;-72
2023/01/31 09:31:17;;;;;;;24.65;7.13;;;;;;;4.72;100.00;102055.47;5032056;28;20389;-72
2023/01/31 09:33:43;;;;;;;21.50;6.18;;;;;;;4.83;98.44;102069.50;5047931;28;20044;-73
2023/01/31 09:36:20;;;;;;;10.98;4.72;;;;;;;4.92;98.99;102077.31;5045287;28;20504;-72
2023/01/31 09:38:45;;;;;;;28.50;7.22;;;;;;;4.96;97.77;102067.34;5031461;28;20029;-72
2023/01/31 09:41:40;;;;;;;14.45;5.65;;;;;;;5.04;97.88;102073.41;5031428;28;20086;-72
2023/01/31 09:44:13;;;;;;;18.65;6.00;;;;;;;5.09;97.98;102075.03;5030361;28;20556;-72
2023/01/31 09:46:43;;;;;;;27.10;5.53;;;;;;;5.18;97.22;102064.88;5029973;28;20037;-71
2023/01/31 09:49:17;;;;;;;17.15;5.57;;;;;;;5.27;97.33;102062.78;5031098;28;20485;-73
2023/01/31 09:51:43;;;;;;;20.77;5.75;;;;;;;5.36;95.93;102067.00;5031012;28;20102;-71
2023/01/31 09:54:22;;;;;;;16.13;5.93;;;;;;;5.47;96.92;102063.97;5040144;28;20123;-71
2023/01/31 09:56:59;;;;;;;21.75;5.30;;;;;;;5.61;95.96;102069.81;5051191;28;20056;-72
2023/01/31 09:59:34;;;;;;;17.95;6.93;;;;;;;5.65;95.78;102078.72;5046739;28;20084;-71
2023/01/31 10:02:08;;;;;;;19.48;5.75;;;;;;;5.68;95.16;102084.00;5030755;28;20374;-72
2023/01/31 10:04:56;;;;;;;14.75;5.30;;;;;;;5.70;95.74;102077.63;5030484;28;20037;-71
2023/01/31 10:07:30;;;;;;;23.42;6.10;;;;;;;5.67;94.88;102077.72;5030694;28;20048;-71
2023/01/31 10:10:13;;;;;;;16.15;6.45;;;;;;;5.66;95.05;102075.06;5029795;28;20048;-73
2023/01/31 10:12:47;;;;;;;23.05;6.47;;;;;;;5.64;95.47;102072.41;5029506;28;20052;-71
2023/01/31 10:15:46;;;;;;;16.70;6.50;;;;;;;5.67;95.85;102058.81;5029334;28;20083;-74
2023/01/31 10:18:32;;;;;;;19.52;7.32;;;;;;;5.76;95.89;102055.81;5029621;28;20037;-72
2023/01/31 10:21:09;;;;;;;15.05;7.57;;;;;;;5.81;95.74;102025.97;5036244;28;20121;-71
2023/01/31 10:24:01;;;;;;;22.58;7.30;;;;;;;5.82;95.58;102043.91;5044407;28;20045;-70
2023/01/31 10:26:29;;;;;;;20.80;7.18;;;;;;;5.81;94.76;102048.44;5030314;28;20116;-71
2023/01/31 10:29:15;;;;;;;21.63;8.77;;;;;;;5.77;95.58;102056.69;5028960;28;20132;-71
2023/01/31 10:31:47;;;;;;;19.10;8.85;;;;;;;5.73;95.27;102063.13;5030366;28;20129;-71
2023/01/31 10:34:35;;;;;;;20.52;8.50;;;;;;;5.67;95.92;102069.63;5030252;28;20100;-71
2023/01/31 10:37:12;;;;;;;20.65;10.00;;;;;;;5.70;96.32;102071.34;5032893;28;20034;-71
2023/01/31 10:39:38;;;;;;;21.95;10.70;;;;;;;5.69;96.54;102075.88;5035386;28;20504;-71
2023/01/31 10:42:31;;;;;;;27.02;10.10;;;;;;;5.71;96.64;102067.72;5030232;28;20041;-72
2023/01/31 10:45:16;;;;;;;25.17;10.80;;;;;;;5.77;97.02;102056.69;5029805;28;20083;-72
2023/01/31 10:48:00;;;;;;;26.15;10.02;;;;;;;5.83;96.80;102064.63;5029792;28;20029;-73
2023/01/31 10:50:36;;;;;;;30.77;11.60;;;;;;;5.88;96.31;102054.53;5030345;28;20049;-72
2023/01/31 10:53:22;;;;;;;25.98;12.90;;;;;;;5.91;96.40;102040.03;5030088;28;20503;-72
2023/01/31 10:56:11;;;;;;;27.58;12.93;;;;;;;5.92;96.66;102044.53;5049847;28;20041;-71
2023/01/31 10:58:37;;;;;;;33.40;12.15;;;;;;;5.92;96.07;102041.81;5049773;28;20047;-72
2023/01/31 11:01:07;;;;;;;24.95;13.10;;;;;;;5.96;96.45;102038.97;5031974;28;20021;-72
2023/01/31 11:03:33;;;;;;;27.23;12.30;;;;;;;6.04;96.49;102044.13;5029716;28;20037;-72
2023/01/31 11:06:00;;;;;;;26.40;12.90;;;;;;;6.13;96.29;102047.38;5029584;28;20485;-71
2023/01/31 11:08:35;;;;;;;22.70;13.00;;;;;;;6.21;96.21;102038.16;5028650;28;20603;-74
2023/01/31 11:11:13;;;;;;;30.17;13.43;;;;;;;6.20;95.94;102039.06;5028479;28;20037;-72
2023/01/31 11:13:38;;;;;;;32.00;12.55;;;;;;;6.23;95.61;102031.72;5028346;28;20037;-72
2023/01/31 11:16:10;;;;;;;29.95;12.10;;;;;;;6.26;95.32;102025.34;5029262;28;20037;-71
2023/01/31 11:18:48;;;;;;;32.22;13.63;;;;;;;6.31;95.46;102020.66;5028374;28;20033;-72
2023/01/31 11:21:24;;;;;;;41.75;13.93;;;;;;;6.36;95.21;102013.25;5029945;28;20091;-71
2023/01/31 11:23:51;;;;;;;24.08;11.85;;;;;;;6.42;94.97;102007.63;5040605;28;20037;-72
2023/01/31 11:26:33;;;;;;;25.58;11.65;;;;;;;6.52;94.90;101991.94;5028447;28;20044;-72
2023/01/31 11:28:59;;;;;;;25.25;11.65;;;;;;;6.49;93.82;101990.25;5028104;28;20045;-71
2023/01/31 11:31:34;;;;;;;31.63;11.43;;;;;;;6.48;94.89;101990.28;5028908;28;20021;-71
2023/01/31 11:34:02;;;;;;;23.38;10.88;;;;;;;6.52;94.76;102000.06;5029077;28;20029;-72
2023/01/31 11:36:41;;;;;;;22.17;11.10;;;;;;;6.52;94.87;101997.34;5042057;28;20086;-71
2023/01/31 11:39:36;;;;;;;22.02;11.02;;;;;;;6.48;94.26;102001.09;5048068;28;20075;-72
2023/01/31 11:42:11;;;;;;;26.92;10.63;;;;;;;6.44;94.41;101997.66;5048068;28;20492;-71